sensor_id;sensor_type;location;lat;lon;timestamp;P1;durP1;ratioP1;P2;durP2;ratioP2
45254;SDS011;30989;52.078;21.014;2023-10-08T00:02:08;10.45;;;3.00;;
45254;SDS011;30989;52.078;21.014;2023-10-08T00:04:35;8.52;;;3.83;;
45254;SDS011;30989;52.078;21.014;2023-10-08T00:07:04;10.32;;;3.65;;
45254;SDS011;30989;52.078;21.014;2023-10-08T00:09:33;9.48;;;3.53;;
45254;SDS011;30989;52.078;21.014;2023-10-08T00:12:02;8.38;;;3.33;;
45254;SDS011;30989;52.078;21.014;2023-10-08T00:14:28;7.65;;;4.18;;
45254;SDS011;30989;52.078;21.014;2023-10-08T00:16:54;9.00;;;3.63;;
45254;SDS011;30989;52.078;21.014;2023-10-08T00:19:19;8.35;;;3.05;;
45254;SDS011;30989;52.078;21.014;2023-10-08T00:21:46;8.38;;;3.33;;
45254;SDS011;30989;52.078;21.014;2023-10-08T00:24:13;25.65;;;4.68;;
45254;SDS011;30989;52.078;21.014;2023-10-08T00:26:39;11.23;;;3.40;;
45254;SDS011;30989;52.078;21.014;2023-10-08T00:29:08;6.53;;;3.25;;
45254;SDS011;30989;52.078;21.014;2023-10-08T00:32:03;12.52;;;3.33;;
45254;SDS011;30989;52.078;21.014;2023-10-08T00:34:37;12.63;;;3.40;;
45254;SDS011;30989;52.078;21.014;2023-10-08T00:37:11;13.90;;;4.10;;
45254;SDS011;30989;52.078;21.014;2023-10-08T00:39:39;9.80;;;3.63;;
45254;SDS011;30989;52.078;21.014;2023-10-08T00:42:06;9.27;;;3.65;;
45254;SDS011;30989;52.078;21.014;2023-10-08T00:44:33;9.55;;;3.20;;
45254;SDS011;30989;52.078;21.014;2023-10-08T00:47:06;9.30;;;3.42;;
45254;SDS011;30989;52.078;21.014;2023-10-08T00:49:32;13.07;;;3.42;;
45254;SDS011;30989;52.078;21.014;2023-10-08T00:52:11;7.07;;;3.83;;
45254;SDS011;30989;52.078;21.014;2023-10-08T00:54:38;9.27;;;3.25;;
45254;SDS011;30989;52.078;21.014;2023-10-08T00:57:25;8.05;;;2.97;;
45254;SDS011;30989;52.078;21.014;2023-10-08T00:59:54;6.47;;;2.70;;
45254;SDS011;30989;52.078;21.014;2023-10-08T01:02:24;6.47;;;2.55;;
45254;SDS011;30989;52.078;21.014;2023-10-08T01:05:01;7.68;;;3.35;;
45254;SDS011;30989;52.078;21.014;2023-10-08T01:07:27;12.15;;;3.83;;
45254;SDS011;30989;52.078;21.014;2023-10-08T01:09:56;13.75;;;3.25;;
45254;SDS011;30989;52.078;21.014;2023-10-08T01:12:25;7.13;;;2.45;;
45254;SDS011;30989;52.078;21.014;2023-10-08T01:15:01;8.82;;;2.58;;
45254;SDS011;30989;52.078;21.014;2023-10-08T01:17:38;6.15;;;2.17;;
45254;SDS011;30989;52.078;21.014;2023-10-08T01:20:24;6.97;;;2.35;;
45254;SDS011;30989;52.078;21.014;2023-10-08T01:23:04;8.38;;;3.08;;
45254;SDS011;30989;52.078;21.014;2023-10-08T01:25:41;7.80;;;1.92;;
45254;SDS011;30989;52.078;21.014;2023-10-08T01:28:16;7.57;;;2.25;;
45254;SDS011;30989;52.078;21.014;2023-10-08T01:30:51;6.03;;;2.08;;
45254;SDS011;30989;52.078;21.014;2023-10-08T01:33:19;9.23;;;2.40;;
45254;SDS011;30989;52.078;21.014;2023-10-08T01:35:53;8.80;;;2.25;;
45254;SDS011;30989;52.078;21.014;2023-10-08T01:38:19;11.60;;;2.08;;
45254;SDS011;30989;52.078;21.014;2023-10-08T01:40:49;5.30;;;2.20;;
45254;SDS011;30989;52.078;21.014;2023-10-08T01:43:16;7.90;;;2.67;;
45254;SDS011;30989;52.078;21.014;2023-10-08T01:45:43;5.53;;;1.90;;
45254;SDS011;30989;52.078;21.014;2023-10-08T01:48:13;8.73;;;2.53;;
45254;SDS011;30989;52.078;21.014;2023-10-08T01:50:45;6.93;;;1.67;;
45254;SDS011;30989;52.078;21.014;2023-10-08T01:53:12;6.93;;;1.88;;
45254;SDS011;30989;52.078;21.014;2023-10-08T01:55:40;8.35;;;2.28;;
45254;SDS011;30989;52.078;21.014;2023-10-08T01:58:17;12.98;;;3.60;;
45254;SDS011;30989;52.078;21.014;2023-10-08T02:00:45;9.48;;;2.72;;
45254;SDS011;30989;52.078;21.014;2023-10-08T02:03:15;6.43;;;2.50;;
45254;SDS011;30989;52.078;21.014;2023-10-08T02:05:43;11.05;;;3.67;;
45254;SDS011;30989;52.078;21.014;2023-10-08T02:08:13;9.07;;;2.60;;
45254;SDS011;30989;52.078;21.014;2023-10-08T02:10:40;7.38;;;2.78;;
45254;SDS011;30989;52.078;21.014;2023-10-08T02:13:07;6.95;;;2.70;;
45254;SDS011;30989;52.078;21.014;2023-10-08T02:15:34;7.97;;;2.80;;
45254;SDS011;30989;52.078;21.014;2023-10-08T02:18:05;9.25;;;2.45;;
45254;SDS011;30989;52.078;21.014;2023-10-08T02:20:31;10.23;;;2.92;;
45254;SDS011;30989;52.078;21.014;2023-10-08T02:22:58;7.85;;;3.17;;
45254;SDS011;30989;52.078;21.014;2023-10-08T02:25:25;5.88;;;2.75;;
45254;SDS011;30989;52.078;21.014;2023-10-08T02:27:51;5.53;;;3.08;;
45254;SDS011;30989;52.078;21.014;2023-10-08T02:30:16;6.65;;;2.80;;
45254;SDS011;30989;52.078;21.014;2023-10-08T02:32:43;11.18;;;3.22;;
45254;SDS011;30989;52.078;21.014;2023-10-08T02:35:11;7.13;;;3.15;;
45254;SDS011;30989;52.078;21.014;2023-10-08T02:37:38;8.63;;;3.40;;
45254;SDS011;30989;52.078;21.014;2023-10-08T02:40:08;12.73;;;5.32;;
45254;SDS011;30989;52.078;21.014;2023-10-08T02:42:42;12.57;;;3.10;;
45254;SDS011;30989;52.078;21.014;2023-10-08T02:45:09;13.60;;;2.60;;
45254;SDS011;30989;52.078;21.014;2023-10-08T02:47:42;9.23;;;3.10;;
45254;SDS011;30989;52.078;21.014;2023-10-08T02:50:11;10.10;;;3.25;;
45254;SDS011;30989;52.078;21.014;2023-10-08T02:52:42;14.25;;;4.47;;
45254;SDS011;30989;52.078;21.014;2023-10-08T02:55:10;8.23;;;3.08;;
45254;SDS011;30989;52.078;21.014;2023-10-08T02:57:43;7.78;;;3.22;;
45254;SDS011;30989;52.078;21.014;2023-10-08T03:00:09;8.55;;;4.32;;
45254;SDS011;30989;52.078;21.014;2023-10-08T03:02:38;10.63;;;3.17;;
45254;SDS011;30989;52.078;21.014;2023-10-08T03:05:04;14.05;;;3.80;;
45254;SDS011;30989;52.078;21.014;2023-10-08T03:07:33;9.90;;;3.22;;
45254;SDS011;30989;52.078;21.014;2023-10-08T03:10:00;10.32;;;3.55;;
45254;SDS011;30989;52.078;21.014;2023-10-08T03:12:42;7.07;;;2.60;;
45254;SDS011;30989;52.078;21.014;2023-10-08T03:15:08;10.02;;;3.13;;
45254;SDS011;30989;52.078;21.014;2023-10-08T03:17:54;9.80;;;3.65;;
45254;SDS011;30989;52.078;21.014;2023-10-08T03:20:23;9.80;;;2.88;;
45254;SDS011;30989;52.078;21.014;2023-10-08T03:23:08;11.35;;;3.20;;
45254;SDS011;30989;52.078;21.014;2023-10-08T03:25:58;11.80;;;3.80;;
45254;SDS011;30989;52.078;21.014;2023-10-08T03:28:25;8.98;;;2.95;;
45254;SDS011;30989;52.078;21.014;2023-10-08T03:30:56;11.05;;;4.40;;
45254;SDS011;30989;52.078;21.014;2023-10-08T03:33:38;7.65;;;3.17;;
45254;SDS011;30989;52.078;21.014;2023-10-08T03:36:03;18.70;;;4.53;;
45254;SDS011;30989;52.078;21.014;2023-10-08T03:38:46;14.98;;;4.60;;
45254;SDS011;30989;52.078;21.014;2023-10-08T03:41:23;13.48;;;5.00;;
45254;SDS011;30989;52.078;21.014;2023-10-08T03:43:56;15.13;;;5.28;;
45254;SDS011;30989;52.078;21.014;2023-10-08T03:46:31;15.77;;;4.38;;
45254;SDS011;30989;52.078;21.014;2023-10-08T03:49:04;13.20;;;5.55;;
45254;SDS011;30989;52.078;21.014;2023-10-08T03:51:40;10.63;;;4.32;;
45254;SDS011;30989;52.078;21.014;2023-10-08T03:54:06;13.63;;;4.68;;
45254;SDS011;30989;52.078;21.014;2023-10-08T03:56:42;12.38;;;4.55;;
45254;SDS011;30989;52.078;21.014;2023-10-08T03:59:19;9.15;;;4.95;;
45254;SDS011;30989;52.078;21.014;2023-10-08T04:01:59;11.35;;;4.50;;
45254;SDS011;30989;52.078;21.014;2023-10-08T04:04:42;12.75;;;3.70;;
45254;SDS011;30989;52.078;21.014;2023-10-08T04:07:19;11.13;;;3.90;;
45254;SDS011;30989;52.078;21.014;2023-10-08T04:09:58;14.88;;;4.78;;
45254;SDS011;30989;52.078;21.014;2023-10-08T04:12:33;15.68;;;3.80;;
45254;SDS011;30989;52.078;21.014;2023-10-08T04:15:03;13.15;;;3.20;;
45254;SDS011;30989;52.078;21.014;2023-10-08T04:17:32;11.82;;;4.28;;
45254;SDS011;30989;52.078;21.014;2023-10-08T04:20:09;8.00;;;2.80;;
45254;SDS011;30989;52.078;21.014;2023-10-08T04:22:56;11.13;;;3.95;;
45254;SDS011;30989;52.078;21.014;2023-10-08T04:25:25;11.82;;;3.97;;
45254;SDS011;30989;52.078;21.014;2023-10-08T04:27:57;6.93;;;3.33;;
45254;SDS011;30989;52.078;21.014;2023-10-08T04:30:33;7.63;;;2.67;;
45254;SDS011;30989;52.078;21.014;2023-10-08T04:33:00;8.57;;;2.95;;
45254;SDS011;30989;52.078;21.014;2023-10-08T04:35:46;5.70;;;2.65;;
45254;SDS011;30989;52.078;21.014;2023-10-08T04:38:24;13.02;;;2.60;;
45254;SDS011;30989;52.078;21.014;2023-10-08T04:40:51;7.13;;;1.95;;
45254;SDS011;30989;52.078;21.014;2023-10-08T04:43:18;8.38;;;2.70;;
45254;SDS011;30989;52.078;21.014;2023-10-08T04:45:53;5.80;;;2.05;;
45254;SDS011;30989;52.078;21.014;2023-10-08T04:48:22;5.63;;;1.88;;
45254;SDS011;30989;52.078;21.014;2023-10-08T04:50:49;4.18;;;1.48;;
45254;SDS011;30989;52.078;21.014;2023-10-08T04:53:27;3.42;;;1.60;;
45254;SDS011;30989;52.078;21.014;2023-10-08T04:56:10;2.78;;;1.17;;
45254;SDS011;30989;52.078;21.014;2023-10-08T04:58:46;2.53;;;1.33;;
45254;SDS011;30989;52.078;21.014;2023-10-08T05:01:16;3.95;;;0.90;;
45254;SDS011;30989;52.078;21.014;2023-10-08T05:03:52;2.97;;;1.10;;
45254;SDS011;30989;52.078;21.014;2023-10-08T05:06:22;3.60;;;1.30;;
45254;SDS011;30989;52.078;21.014;2023-10-08T05:09:01;11.57;;;1.10;;
45254;SDS011;30989;52.078;21.014;2023-10-08T05:11:36;4.00;;;1.23;;
45254;SDS011;30989;52.078;21.014;2023-10-08T05:14:11;2.35;;;0.82;;
45254;SDS011;30989;52.078;21.014;2023-10-08T05:16:55;3.17;;;0.88;;
45254;SDS011;30989;52.078;21.014;2023-10-08T05:19:40;5.05;;;0.98;;
45254;SDS011;30989;52.078;21.014;2023-10-08T05:22:12;9.82;;;2.33;;
45254;SDS011;30989;52.078;21.014;2023-10-08T05:24:54;5.07;;;0.95;;
45254;SDS011;30989;52.078;21.014;2023-10-08T05:27:39;3.60;;;1.08;;
45254;SDS011;30989;52.078;21.014;2023-10-08T05:30:27;1.98;;;0.80;;
45254;SDS011;30989;52.078;21.014;2023-10-08T05:32:56;4.95;;;1.00;;
45254;SDS011;30989;52.078;21.014;2023-10-08T05:35:29;3.33;;;1.55;;
45254;SDS011;30989;52.078;21.014;2023-10-08T05:38:03;4.22;;;1.52;;
45254;SDS011;30989;52.078;21.014;2023-10-08T05:40:38;2.55;;;0.90;;
45254;SDS011;30989;52.078;21.014;2023-10-08T05:43:22;6.47;;;0.90;;
45254;SDS011;30989;52.078;21.014;2023-10-08T05:46:06;4.60;;;1.00;;
45254;SDS011;30989;52.078;21.014;2023-10-08T05:51:41;3.20;;;1.25;;
45254;SDS011;30989;52.078;21.014;2023-10-08T05:56:54;4.97;;;1.40;;
45254;SDS011;30989;52.078;21.014;2023-10-08T05:59:49;2.72;;;0.80;;
45254;SDS011;30989;52.078;21.014;2023-10-08T06:02:21;2.85;;;1.63;;
45254;SDS011;30989;52.078;21.014;2023-10-08T06:05:08;4.50;;;0.77;;
45254;SDS011;30989;52.078;21.014;2023-10-08T06:07:50;2.25;;;0.90;;
45254;SDS011;30989;52.078;21.014;2023-10-08T06:10:23;4.78;;;1.10;;
45254;SDS011;30989;52.078;21.014;2023-10-08T06:13:00;2.92;;;0.98;;
45254;SDS011;30989;52.078;21.014;2023-10-08T06:15:46;2.45;;;0.93;;
45254;SDS011;30989;52.078;21.014;2023-10-08T06:18:20;2.35;;;0.90;;
45254;SDS011;30989;52.078;21.014;2023-10-08T06:20:51;6.82;;;0.90;;
45254;SDS011;30989;52.078;21.014;2023-10-08T06:23:19;3.75;;;1.13;;
45254;SDS011;30989;52.078;21.014;2023-10-08T06:25:49;1.85;;;0.77;;
45254;SDS011;30989;52.078;21.014;2023-10-08T06:28:23;2.63;;;0.85;;
45254;SDS011;30989;52.078;21.014;2023-10-08T06:30:51;2.38;;;0.80;;
45254;SDS011;30989;52.078;21.014;2023-10-08T06:33:19;2.38;;;0.98;;
45254;SDS011;30989;52.078;21.014;2023-10-08T06:35:50;1.52;;;0.57;;
45254;SDS011;30989;52.078;21.014;2023-10-08T06:38:45;2.13;;;0.85;;
45254;SDS011;30989;52.078;21.014;2023-10-08T06:41:14;2.47;;;0.60;;
45254;SDS011;30989;52.078;21.014;2023-10-08T06:43:43;2.97;;;0.90;;
45254;SDS011;30989;52.078;21.014;2023-10-08T06:46:15;4.45;;;0.80;;
45254;SDS011;30989;52.078;21.014;2023-10-08T06:48:47;1.42;;;0.60;;
45254;SDS011;30989;52.078;21.014;2023-10-08T06:51:14;4.60;;;1.33;;
45254;SDS011;30989;52.078;21.014;2023-10-08T06:53:43;3.22;;;0.80;;
45254;SDS011;30989;52.078;21.014;2023-10-08T06:56:10;1.48;;;0.68;;
45254;SDS011;30989;52.078;21.014;2023-10-08T06:58:37;2.20;;;0.68;;
45254;SDS011;30989;52.078;21.014;2023-10-08T07:01:03;4.65;;;0.55;;
45254;SDS011;30989;52.078;21.014;2023-10-08T07:03:33;2.25;;;0.50;;
45254;SDS011;30989;52.078;21.014;2023-10-08T07:06:01;2.35;;;0.90;;
45254;SDS011;30989;52.078;21.014;2023-10-08T07:08:29;1.80;;;0.55;;
45254;SDS011;30989;52.078;21.014;2023-10-08T07:11:01;4.22;;;0.70;;
45254;SDS011;30989;52.078;21.014;2023-10-08T07:13:33;2.58;;;0.63;;
45254;SDS011;30989;52.078;21.014;2023-10-08T07:16:01;2.13;;;0.60;;
45254;SDS011;30989;52.078;21.014;2023-10-08T07:18:29;2.75;;;0.70;;
45254;SDS011;30989;52.078;21.014;2023-10-08T07:20:59;1.27;;;0.68;;
45254;SDS011;30989;52.078;21.014;2023-10-08T07:23:36;3.30;;;0.68;;
45254;SDS011;30989;52.078;21.014;2023-10-08T07:26:14;1.10;;;0.50;;
45254;SDS011;30989;52.078;21.014;2023-10-08T07:28:43;1.52;;;0.52;;
45254;SDS011;30989;52.078;21.014;2023-10-08T07:31:17;2.58;;;0.85;;
45254;SDS011;30989;52.078;21.014;2023-10-08T07:33:49;2.28;;;0.73;;
45254;SDS011;30989;52.078;21.014;2023-10-08T07:36:25;2.42;;;0.63;;
45254;SDS011;30989;52.078;21.014;2023-10-08T07:38:52;2.22;;;1.08;;
45254;SDS011;30989;52.078;21.014;2023-10-08T07:41:19;5.25;;;0.85;;
45254;SDS011;30989;52.078;21.014;2023-10-08T07:43:48;4.55;;;0.65;;
45254;SDS011;30989;52.078;21.014;2023-10-08T07:46:21;1.83;;;0.73;;
45254;SDS011;30989;52.078;21.014;2023-10-08T07:48:47;1.42;;;0.40;;
45254;SDS011;30989;52.078;21.014;2023-10-08T07:51:13;2.83;;;0.70;;
45254;SDS011;30989;52.078;21.014;2023-10-08T07:53:39;3.88;;;1.35;;
45254;SDS011;30989;52.078;21.014;2023-10-08T07:56:07;1.67;;;0.60;;
45254;SDS011;30989;52.078;21.014;2023-10-08T07:58:34;4.68;;;0.85;;
45254;SDS011;30989;52.078;21.014;2023-10-08T08:01:03;3.53;;;1.08;;
45254;SDS011;30989;52.078;21.014;2023-10-08T08:03:31;2.00;;;0.52;;
45254;SDS011;30989;52.078;21.014;2023-10-08T08:06:02;3.72;;;0.80;;
45254;SDS011;30989;52.078;21.014;2023-10-08T08:08:31;2.92;;;0.65;;
45254;SDS011;30989;52.078;21.014;2023-10-08T08:10:59;3.78;;;0.73;;
45254;SDS011;30989;52.078;21.014;2023-10-08T08:13:30;2.17;;;0.63;;
45254;SDS011;30989;52.078;21.014;2023-10-08T08:15:58;1.30;;;0.40;;
45254;SDS011;30989;52.078;21.014;2023-10-08T08:18:35;2.15;;;0.47;;
45254;SDS011;30989;52.078;21.014;2023-10-08T08:21:01;0.82;;;0.43;;
45254;SDS011;30989;52.078;21.014;2023-10-08T08:23:28;3.22;;;0.77;;
45254;SDS011;30989;52.078;21.014;2023-10-08T08:25:56;2.80;;;0.50;;
45254;SDS011;30989;52.078;21.014;2023-10-08T08:28:36;6.93;;;0.60;;
45254;SDS011;30989;52.078;21.014;2023-10-08T08:31:03;2.47;;;0.70;;
45254;SDS011;30989;52.078;21.014;2023-10-08T08:33:39;1.67;;;0.57;;
45254;SDS011;30989;52.078;21.014;2023-10-08T08:36:26;3.05;;;0.63;;
45254;SDS011;30989;52.078;21.014;2023-10-08T08:38:52;4.05;;;0.98;;
45254;SDS011;30989;52.078;21.014;2023-10-08T08:41:19;3.70;;;0.70;;
45254;SDS011;30989;52.078;21.014;2023-10-08T08:43:52;3.30;;;0.75;;
45254;SDS011;30989;52.078;21.014;2023-10-08T08:46:31;0.68;;;0.35;;
45254;SDS011;30989;52.078;21.014;2023-10-08T08:49:06;2.05;;;0.55;;
45254;SDS011;30989;52.078;21.014;2023-10-08T08:51:33;3.85;;;0.70;;
45254;SDS011;30989;52.078;21.014;2023-10-08T08:54:03;1.83;;;0.50;;
45254;SDS011;30989;52.078;21.014;2023-10-08T08:56:39;1.48;;;0.43;;
45254;SDS011;30989;52.078;21.014;2023-10-08T08:59:08;1.60;;;0.77;;
45254;SDS011;30989;52.078;21.014;2023-10-08T09:01:37;2.10;;;0.88;;
45254;SDS011;30989;52.078;21.014;2023-10-08T09:04:04;1.40;;;0.52;;
45254;SDS011;30989;52.078;21.014;2023-10-08T09:06:32;2.35;;;0.73;;
45254;SDS011;30989;52.078;21.014;2023-10-08T09:08:59;1.02;;;0.40;;
45254;SDS011;30989;52.078;21.014;2023-10-08T09:11:46;2.13;;;0.55;;
45254;SDS011;30989;52.078;21.014;2023-10-08T09:14:23;2.00;;;0.60;;
45254;SDS011;30989;52.078;21.014;2023-10-08T09:16:59;4.25;;;0.50;;
45254;SDS011;30989;52.078;21.014;2023-10-08T09:19:26;7.65;;;0.98;;
45254;SDS011;30989;52.078;21.014;2023-10-08T09:22:01;1.58;;;0.60;;
45254;SDS011;30989;52.078;21.014;2023-10-08T09:24:40;3.65;;;0.57;;
45254;SDS011;30989;52.078;21.014;2023-10-08T09:27:07;5.80;;;0.60;;
45254;SDS011;30989;52.078;21.014;2023-10-08T09:29:34;1.52;;;0.55;;
45254;SDS011;30989;52.078;21.014;2023-10-08T09:32:05;3.58;;;0.80;;
45254;SDS011;30989;52.078;21.014;2023-10-08T09:34:33;0.73;;;0.40;;
45254;SDS011;30989;52.078;21.014;2023-10-08T09:36:59;1.27;;;0.43;;
45254;SDS011;30989;52.078;21.014;2023-10-08T09:39:28;1.15;;;0.52;;
45254;SDS011;30989;52.078;21.014;2023-10-08T09:41:59;1.67;;;0.50;;
45254;SDS011;30989;52.078;21.014;2023-10-08T09:44:28;3.92;;;0.47;;
45254;SDS011;30989;52.078;21.014;2023-10-08T09:46:55;1.52;;;0.60;;
45254;SDS011;30989;52.078;21.014;2023-10-08T09:49:38;1.02;;;0.50;;
45254;SDS011;30989;52.078;21.014;2023-10-08T09:52:07;1.58;;;0.50;;
45254;SDS011;30989;52.078;21.014;2023-10-08T09:54:53;2.15;;;0.50;;
45254;SDS011;30989;52.078;21.014;2023-10-08T09:57:28;2.90;;;0.85;;
45254;SDS011;30989;52.078;21.014;2023-10-08T09:59:54;0.95;;;0.50;;
45254;SDS011;30989;52.078;21.014;2023-10-08T10:02:22;4.75;;;0.70;;
45254;SDS011;30989;52.078;21.014;2023-10-08T10:04:51;1.10;;;0.30;;
45254;SDS011;30989;52.078;21.014;2023-10-08T10:07:17;0.85;;;0.40;;
45254;SDS011;30989;52.078;21.014;2023-10-08T10:09:54;1.88;;;0.55;;
45254;SDS011;30989;52.078;21.014;2023-10-08T10:12:26;3.10;;;0.75;;
45254;SDS011;30989;52.078;21.014;2023-10-08T10:14:52;1.65;;;0.43;;
45254;SDS011;30989;52.078;21.014;2023-10-08T10:17:21;0.63;;;0.40;;
45254;SDS011;30989;52.078;21.014;2023-10-08T10:19:56;2.35;;;0.75;;
45254;SDS011;30989;52.078;21.014;2023-10-08T10:22:34;1.52;;;0.65;;
45254;SDS011;30989;52.078;21.014;2023-10-08T10:25:04;1.15;;;0.50;;
45254;SDS011;30989;52.078;21.014;2023-10-08T10:27:42;1.45;;;0.60;;
45254;SDS011;30989;52.078;21.014;2023-10-08T10:30:33;1.02;;;0.45;;
45254;SDS011;30989;52.078;21.014;2023-10-08T10:33:02;0.93;;;0.40;;
45254;SDS011;30989;52.078;21.014;2023-10-08T10:35:31;5.07;;;0.60;;
45254;SDS011;30989;52.078;21.014;2023-10-08T10:37:58;0.63;;;0.30;;
45254;SDS011;30989;52.078;21.014;2023-10-08T10:40:28;2.78;;;1.45;;
45254;SDS011;30989;52.078;21.014;2023-10-08T10:43:04;2.45;;;0.70;;
45254;SDS011;30989;52.078;21.014;2023-10-08T10:45:32;1.27;;;0.47;;
45254;SDS011;30989;52.078;21.014;2023-10-08T10:48:02;0.80;;;0.30;;
45254;SDS011;30989;52.078;21.014;2023-10-08T10:50:58;1.25;;;0.55;;
45254;SDS011;30989;52.078;21.014;2023-10-08T10:53:31;2.63;;;0.60;;
45254;SDS011;30989;52.078;21.014;2023-10-08T10:55:58;1.75;;;0.50;;
45254;SDS011;30989;52.078;21.014;2023-10-08T10:58:35;1.83;;;0.57;;
45254;SDS011;30989;52.078;21.014;2023-10-08T11:01:04;2.53;;;0.80;;
45254;SDS011;30989;52.078;21.014;2023-10-08T11:03:52;1.90;;;0.60;;
45254;SDS011;30989;52.078;21.014;2023-10-08T11:06:21;7.03;;;0.77;;
45254;SDS011;30989;52.078;21.014;2023-10-08T11:08:53;0.93;;;0.38;;
45254;SDS011;30989;52.078;21.014;2023-10-08T11:11:27;1.65;;;0.57;;
45254;SDS011;30989;52.078;21.014;2023-10-08T11:13:59;1.35;;;0.50;;
45254;SDS011;30989;52.078;21.014;2023-10-08T11:16:25;2.47;;;0.65;;
45254;SDS011;30989;52.078;21.014;2023-10-08T11:18:52;7.45;;;3.97;;
45254;SDS011;30989;52.078;21.014;2023-10-08T11:21:23;1.75;;;0.60;;
45254;SDS011;30989;52.078;21.014;2023-10-08T11:23:49;1.10;;;0.45;;
45254;SDS011;30989;52.078;21.014;2023-10-08T11:26:22;2.88;;;0.73;;
45254;SDS011;30989;52.078;21.014;2023-10-08T11:28:57;4.18;;;0.57;;
45254;SDS011;30989;52.078;21.014;2023-10-08T11:31:26;1.85;;;0.60;;
45254;SDS011;30989;52.078;21.014;2023-10-08T11:33:58;1.65;;;0.40;;
45254;SDS011;30989;52.078;21.014;2023-10-08T11:36:24;1.00;;;0.35;;
45254;SDS011;30989;52.078;21.014;2023-10-08T11:38:53;1.58;;;0.60;;
45254;SDS011;30989;52.078;21.014;2023-10-08T11:41:26;1.35;;;0.40;;
45254;SDS011;30989;52.078;21.014;2023-10-08T11:43:56;1.48;;;0.50;;
45254;SDS011;30989;52.078;21.014;2023-10-08T11:46:23;1.70;;;0.60;;
45254;SDS011;30989;52.078;21.014;2023-10-08T11:49:03;2.40;;;0.65;;
45254;SDS011;30989;52.078;21.014;2023-10-08T11:51:33;3.40;;;0.60;;
45254;SDS011;30989;52.078;21.014;2023-10-08T11:54:00;5.05;;;0.80;;
45254;SDS011;30989;52.078;21.014;2023-10-08T11:56:28;1.67;;;0.60;;
45254;SDS011;30989;52.078;21.014;2023-10-08T11:58:54;1.65;;;0.52;;
45254;SDS011;30989;52.078;21.014;2023-10-08T12:01:22;2.30;;;0.55;;
45254;SDS011;30989;52.078;21.014;2023-10-08T12:03:52;4.00;;;2.63;;
45254;SDS011;30989;52.078;21.014;2023-10-08T12:06:18;2.13;;;0.95;;
45254;SDS011;30989;52.078;21.014;2023-10-08T12:08:45;1.75;;;0.60;;
45254;SDS011;30989;52.078;21.014;2023-10-08T12:11:12;1.50;;;0.38;;
45254;SDS011;30989;52.078;21.014;2023-10-08T12:13:41;3.33;;;0.60;;
45254;SDS011;30989;52.078;21.014;2023-10-08T12:16:14;2.42;;;0.45;;
45254;SDS011;30989;52.078;21.014;2023-10-08T12:18:48;1.88;;;0.50;;
45254;SDS011;30989;52.078;21.014;2023-10-08T12:21:18;3.00;;;0.40;;
45254;SDS011;30989;52.078;21.014;2023-10-08T12:23:46;1.40;;;0.60;;
45254;SDS011;30989;52.078;21.014;2023-10-08T12:26:16;1.17;;;0.50;;
45254;SDS011;30989;52.078;21.014;2023-10-08T12:28:44;2.58;;;0.57;;
45254;SDS011;30989;52.078;21.014;2023-10-08T12:31:13;2.17;;;0.70;;
45254;SDS011;30989;52.078;21.014;2023-10-08T12:33:49;3.30;;;0.70;;
45254;SDS011;30989;52.078;21.014;2023-10-08T12:36:19;3.05;;;1.15;;
45254;SDS011;30989;52.078;21.014;2023-10-08T12:39:03;1.90;;;0.80;;
45254;SDS011;30989;52.078;21.014;2023-10-08T12:41:39;1.60;;;0.65;;
45254;SDS011;30989;52.078;21.014;2023-10-08T12:44:06;3.20;;;0.68;;
45254;SDS011;30989;52.078;21.014;2023-10-08T12:46:33;1.45;;;0.45;;
45254;SDS011;30989;52.078;21.014;2023-10-08T12:48:59;2.30;;;0.60;;
45254;SDS011;30989;52.078;21.014;2023-10-08T12:51:26;1.58;;;0.52;;
45254;SDS011;30989;52.078;21.014;2023-10-08T12:53:56;2.40;;;0.60;;
45254;SDS011;30989;52.078;21.014;2023-10-08T12:56:33;1.48;;;0.60;;
45254;SDS011;30989;52.078;21.014;2023-10-08T12:59:14;7.97;;;1.50;;
45254;SDS011;30989;52.078;21.014;2023-10-08T13:01:46;3.33;;;0.50;;
45254;SDS011;30989;52.078;21.014;2023-10-08T13:04:19;4.00;;;0.70;;
45254;SDS011;30989;52.078;21.014;2023-10-08T13:06:55;2.60;;;0.73;;
45254;SDS011;30989;52.078;21.014;2023-10-08T13:09:23;4.70;;;1.02;;
45254;SDS011;30989;52.078;21.014;2023-10-08T13:11:49;1.95;;;0.50;;
45254;SDS011;30989;52.078;21.014;2023-10-08T13:14:15;1.98;;;0.60;;
45254;SDS011;30989;52.078;21.014;2023-10-08T13:16:40;5.22;;;0.80;;
45254;SDS011;30989;52.078;21.014;2023-10-08T13:19:06;6.72;;;1.83;;
45254;SDS011;30989;52.078;21.014;2023-10-08T13:21:34;2.28;;;1.10;;
45254;SDS011;30989;52.078;21.014;2023-10-08T13:24:02;2.13;;;0.70;;
45254;SDS011;30989;52.078;21.014;2023-10-08T13:26:28;2.25;;;0.70;;
45254;SDS011;30989;52.078;21.014;2023-10-08T13:28:57;1.52;;;0.52;;
45254;SDS011;30989;52.078;21.014;2023-10-08T13:31:24;4.47;;;0.80;;
45254;SDS011;30989;52.078;21.014;2023-10-08T13:33:50;2.58;;;0.80;;
45254;SDS011;30989;52.078;21.014;2023-10-08T13:36:17;2.13;;;1.08;;
45254;SDS011;30989;52.078;21.014;2023-10-08T13:38:43;2.17;;;0.65;;
45254;SDS011;30989;52.078;21.014;2023-10-08T13:41:10;1.30;;;0.60;;
45254;SDS011;30989;52.078;21.014;2023-10-08T13:43:43;4.15;;;1.48;;
45254;SDS011;30989;52.078;21.014;2023-10-08T13:46:16;5.03;;;0.77;;
45254;SDS011;30989;52.078;21.014;2023-10-08T13:48:43;3.65;;;0.90;;
45254;SDS011;30989;52.078;21.014;2023-10-08T13:51:13;1.27;;;0.50;;
45254;SDS011;30989;52.078;21.014;2023-10-08T13:53:47;3.03;;;0.70;;
45254;SDS011;30989;52.078;21.014;2023-10-08T13:56:17;5.82;;;2.47;;
45254;SDS011;30989;52.078;21.014;2023-10-08T13:58:45;4.03;;;0.80;;
45254;SDS011;30989;52.078;21.014;2023-10-08T14:01:14;2.75;;;0.73;;
45254;SDS011;30989;52.078;21.014;2023-10-08T14:06:18;4.90;;;0.80;;
45254;SDS011;30989;52.078;21.014;2023-10-08T14:08:45;1.42;;;0.52;;
45254;SDS011;30989;52.078;21.014;2023-10-08T14:11:17;1.85;;;0.65;;
45254;SDS011;30989;52.078;21.014;2023-10-08T14:13:49;1.63;;;0.60;;
45254;SDS011;30989;52.078;21.014;2023-10-08T14:16:18;2.15;;;0.70;;
45254;SDS011;30989;52.078;21.014;2023-10-08T14:18:54;1.35;;;0.55;;
45254;SDS011;30989;52.078;21.014;2023-10-08T14:21:23;1.80;;;0.60;;
45254;SDS011;30989;52.078;21.014;2023-10-08T14:23:52;2.83;;;0.70;;
45254;SDS011;30989;52.078;21.014;2023-10-08T14:26:18;4.47;;;0.93;;
45254;SDS011;30989;52.078;21.014;2023-10-08T14:28:47;4.22;;;1.83;;
45254;SDS011;30989;52.078;21.014;2023-10-08T14:31:22;2.72;;;1.08;;
45254;SDS011;30989;52.078;21.014;2023-10-08T14:33:48;1.88;;;0.80;;
45254;SDS011;30989;52.078;21.014;2023-10-08T14:36:40;4.45;;;0.63;;
45254;SDS011;30989;52.078;21.014;2023-10-08T14:39:24;2.65;;;0.90;;
45254;SDS011;30989;52.078;21.014;2023-10-08T14:42:08;3.22;;;0.70;;
45254;SDS011;30989;52.078;21.014;2023-10-08T14:44:52;1.58;;;0.70;;
45254;SDS011;30989;52.078;21.014;2023-10-08T14:47:17;1.35;;;0.60;;
45254;SDS011;30989;52.078;21.014;2023-10-08T14:49:43;2.80;;;0.60;;
45254;SDS011;30989;52.078;21.014;2023-10-08T14:52:09;1.73;;;0.70;;
45254;SDS011;30989;52.078;21.014;2023-10-08T14:54:34;2.13;;;0.70;;
45254;SDS011;30989;52.078;21.014;2023-10-08T14:57:00;1.98;;;0.90;;
45254;SDS011;30989;52.078;21.014;2023-10-08T14:59:27;2.42;;;0.80;;
45254;SDS011;30989;52.078;21.014;2023-10-08T15:01:56;2.30;;;0.65;;
45254;SDS011;30989;52.078;21.014;2023-10-08T15:04:21;3.03;;;1.02;;
45254;SDS011;30989;52.078;21.014;2023-10-08T15:06:50;3.15;;;1.25;;
45254;SDS011;30989;52.078;21.014;2023-10-08T15:09:15;1.70;;;0.70;;